createdAt,value
2018-05-23T00:01:57.993Z,7.87
2018-05-23T00:04:25.404Z,6.57
2018-05-23T00:06:52.825Z,9.23
2018-05-23T00:09:20.237Z,8.25
2018-05-23T00:11:48.440Z,7.37
2018-05-23T00:14:15.849Z,8.68
2018-05-23T00:16:43.272Z,13.98
2018-05-23T00:19:10.689Z,11.05
2018-05-23T00:21:38.113Z,9.70
2018-05-23T00:24:05.533Z,8.70
2018-05-23T00:26:33.062Z,8.98
2018-05-23T00:29:00.477Z,11.10
2018-05-23T00:31:27.997Z,11.70
2018-05-23T00:33:55.416Z,11.30
2018-05-23T00:36:22.943Z,11.32
2018-05-23T00:38:50.357Z,11.23
2018-05-23T00:41:17.863Z,12.75
2018-05-23T00:43:45.201Z,10.57
2018-05-23T00:46:13.393Z,12.45
2018-05-23T00:48:40.800Z,8.43
2018-05-23T00:51:08.221Z,9.60
2018-05-23T00:53:35.628Z,11.73
2018-05-23T00:56:03.053Z,10.20
2018-05-23T00:58:30.474Z,8.50
2018-05-23T01:00:57.893Z,11.10
2018-05-23T01:03:25.310Z,13.80
2018-05-23T01:05:52.736Z,15.02
2018-05-23T01:08:20.261Z,13.60
2018-05-23T01:10:47.732Z,14.87
2018-05-23T01:13:15.152Z,16.42
2018-05-23T01:15:42.586Z,13.13
2018-05-23T01:18:10.042Z,13.15
2018-05-23T01:20:37.459Z,13.43
2018-05-23T01:23:04.886Z,12.73
2018-05-23T01:25:32.314Z,11.93
2018-05-23T01:28:00.511Z,10.50
2018-05-23T01:30:28.763Z,14.20
2018-05-23T01:32:56.124Z,11.63
2018-05-23T01:35:23.540Z,15.38
2018-05-23T01:37:51.729Z,9.60
2018-05-23T01:40:19.912Z,12.77
2018-05-23T01:42:48.102Z,10.77
2018-05-23T01:45:16.285Z,10.55
2018-05-23T01:47:44.473Z,10.95
2018-05-23T01:50:12.652Z,14.50
2018-05-23T01:52:40.832Z,10.18
2018-05-23T01:55:09.012Z,9.55
2018-05-23T01:57:36.436Z,9.18
2018-05-23T02:00:03.858Z,10.75
2018-05-23T02:02:31.364Z,12.37
2018-05-23T02:04:58.785Z,11.60
2018-05-23T02:07:27.739Z,10.70
2018-05-23T02:09:55.211Z,12.02
2018-05-23T02:12:22.630Z,10.93
2018-05-23T02:14:50.151Z,13.30
2018-05-23T02:17:17.652Z,12.32
2018-05-23T02:19:44.989Z,12.32
2018-05-23T02:22:12.460Z,13.65
2018-05-23T02:24:39.868Z,11.52
2018-05-23T02:27:07.406Z,12.45
2018-05-23T02:29:34.821Z,12.65
2018-05-23T02:32:02.339Z,9.07
2018-05-23T02:34:29.763Z,14.18
2018-05-23T02:36:57.181Z,9.90
2018-05-23T02:39:24.600Z,13.43
2018-05-23T02:41:52.027Z,12.45
2018-05-23T02:44:19.442Z,12.30
2018-05-23T02:46:46.874Z,15.48
2018-05-23T02:49:14.284Z,12.25
2018-05-23T02:51:41.708Z,14.27
2018-05-23T02:54:09.120Z,13.25
2018-05-23T02:56:36.643Z,16.65
2018-05-23T02:59:04.112Z,17.48
2018-05-23T03:01:31.582Z,11.88
2018-05-23T03:03:59.744Z,14.40
2018-05-23T03:06:28.058Z,12.98
2018-05-23T03:08:56.222Z,13.15
2018-05-23T03:11:24.427Z,9.55
2018-05-23T03:13:51.844Z,12.82
2018-05-23T03:16:19.261Z,13.95
2018-05-23T03:18:46.673Z,15.15
2018-05-23T03:21:14.090Z,9.77
2018-05-23T03:23:41.573Z,16.35
2018-05-23T03:26:08.993Z,10.93
2018-05-23T03:28:37.913Z,10.52
2018-05-23T03:31:05.332Z,12.35
2018-05-23T03:33:32.745Z,9.50
2018-05-23T03:36:00.260Z,10.65
2018-05-23T03:38:28.425Z,9.73
2018-05-23T03:40:56.609Z,11.75
2018-05-23T03:43:24.793Z,11.40
2018-05-23T03:45:52.981Z,15.35
2018-05-23T03:48:21.196Z,10.73
2018-05-23T03:50:49.360Z,11.82
2018-05-23T03:53:17.569Z,11.90
2018-05-23T03:55:45.725Z,10.02
2018-05-23T03:58:13.936Z,10.90
2018-05-23T04:00:53.329Z,10.98
2018-05-23T04:03:32.741Z,10.50
2018-05-23T04:06:12.288Z,10.82
2018-05-23T04:08:39.704Z,10.43
2018-05-23T04:11:07.138Z,17.60
2018-05-23T04:13:34.713Z,14.27
2018-05-23T04:16:02.874Z,15.90
2018-05-23T04:18:31.086Z,14.63
2018-05-23T04:20:58.511Z,13.85
2018-05-23T04:23:25.923Z,14.70
2018-05-23T04:25:53.337Z,14.18
2018-05-23T04:28:20.764Z,12.65
2018-05-23T04:30:48.231Z,15.50
2018-05-23T04:33:16.388Z,12.50
2018-05-23T04:35:44.588Z,13.60
2018-05-23T04:38:12.770Z,11.02
2018-05-23T04:40:40.977Z,10.15
2018-05-23T04:43:08.396Z,11.12
2018-05-23T04:45:35.918Z,12.18
2018-05-23T04:48:03.332Z,14.07
2018-05-23T04:50:30.757Z,12.25
2018-05-23T04:52:58.172Z,14.93
2018-05-23T04:55:25.599Z,11.20
2018-05-23T04:57:53.057Z,12.82
2018-05-23T05:00:20.541Z,12.30
2018-05-23T05:02:48.007Z,11.23
2018-05-23T05:05:15.421Z,11.07
2018-05-23T05:07:42.845Z,12.55
2018-05-23T05:10:10.262Z,14.55
2018-05-23T05:12:37.681Z,13.30
2018-05-23T05:15:05.157Z,15.15
2018-05-23T05:17:33.332Z,16.42
2018-05-23T05:20:00.762Z,12.95
2018-05-23T05:22:28.284Z,17.15
2018-05-23T05:24:56.553Z,13.35
2018-05-23T05:27:23.894Z,13.32
2018-05-23T05:29:51.314Z,16.35
2018-05-23T05:32:18.737Z,20.33
2018-05-23T05:34:46.241Z,19.62
2018-05-23T05:37:13.670Z,14.98
2018-05-23T05:39:41.189Z,16.67
2018-05-23T05:42:08.658Z,14.20
2018-05-23T05:44:36.820Z,19.52
2018-05-23T05:47:05.005Z,14.02
2018-05-23T05:49:33.220Z,17.87
2018-05-23T05:52:01.409Z,14.38
2018-05-23T05:54:28.839Z,14.85
2018-05-23T05:56:56.340Z,11.70
2018-05-23T05:59:23.769Z,14.70
2018-05-23T06:01:51.333Z,13.77
2018-05-23T06:04:19.472Z,17.95
2018-05-23T06:06:46.912Z,16.80
2018-05-23T06:09:15.109Z,13.60
2018-05-23T06:11:43.293Z,18.90
2018-05-23T06:14:11.485Z,19.58
2018-05-23T06:16:39.668Z,15.45
2018-05-23T06:19:07.860Z,15.52
2018-05-23T06:21:36.053Z,15.25
2018-05-23T06:24:04.237Z,22.75
2018-05-23T06:26:32.432Z,18.33
2018-05-23T06:28:59.913Z,15.20
2018-05-23T06:31:27.333Z,14.25
2018-05-23T06:33:55.525Z,22.65
2018-05-23T06:36:22.946Z,21.75
2018-05-23T06:38:50.377Z,14.68
2018-05-23T06:41:17.878Z,16.40
2018-05-23T06:43:46.044Z,20.20
2018-05-23T06:46:14.228Z,16.40
2018-05-23T06:48:42.444Z,18.05
2018-05-23T06:51:09.881Z,20.60
2018-05-23T06:53:38.076Z,19.08
2018-05-23T06:56:06.281Z,15.57
2018-05-23T06:58:33.714Z,24.30
2018-05-23T07:01:01.221Z,16.85
2018-05-23T07:03:28.644Z,16.62
2018-05-23T07:05:56.091Z,17.30
2018-05-23T07:08:23.496Z,20.27
2018-05-23T07:10:50.913Z,14.87
2018-05-23T07:13:18.375Z,19.80
2018-05-23T07:15:45.792Z,20.00
2018-05-23T07:18:13.352Z,17.50
2018-05-23T07:20:40.776Z,18.15
2018-05-23T07:23:08.209Z,22.33
2018-05-23T07:25:35.621Z,16.60
2018-05-23T07:28:03.090Z,16.12
2018-05-23T07:30:30.765Z,19.50
2018-05-23T07:32:58.952Z,23.10
2018-05-23T07:35:26.361Z,21.48
2018-05-23T07:37:53.881Z,17.77
2018-05-23T07:40:21.468Z,19.70
2018-05-23T07:42:49.645Z,18.40
2018-05-23T07:45:17.058Z,14.45
2018-05-23T07:47:44.591Z,19.55
2018-05-23T07:50:12.009Z,22.73
2018-05-23T07:52:39.523Z,19.30
2018-05-23T07:55:06.948Z,16.10
2018-05-23T07:57:34.369Z,19.02
2018-05-23T08:00:01.793Z,15.07
2018-05-23T08:02:29.208Z,19.35
2018-05-23T08:04:56.641Z,16.80
2018-05-23T08:07:24.825Z,18.92
2018-05-23T08:09:52.249Z,21.17
2018-05-23T08:12:19.664Z,16.80
2018-05-23T08:14:47.093Z,21.62
2018-05-23T08:17:14.512Z,15.80
2018-05-23T08:19:42.731Z,15.40
2018-05-23T08:22:10.165Z,14.98
2018-05-23T08:24:38.361Z,17.27
2018-05-23T08:27:06.553Z,15.77
2018-05-23T08:29:34.757Z,19.37
2018-05-23T08:32:02.190Z,15.68
2018-05-23T08:34:29.618Z,18.30
2018-05-23T08:36:57.060Z,17.62
2018-05-23T08:39:24.504Z,16.25
2018-05-23T08:41:52.680Z,22.27
2018-05-23T08:44:20.116Z,15.25
2018-05-23T08:46:47.532Z,16.25
2018-05-23T08:49:15.729Z,14.25
2018-05-23T08:51:43.918Z,16.37
2018-05-23T08:54:12.111Z,14.25
2018-05-23T08:56:40.342Z,18.10
2018-05-23T08:59:07.768Z,16.15
2018-05-23T09:01:35.968Z,16.48
2018-05-23T09:04:03.449Z,12.05
2018-05-23T09:06:30.917Z,14.77
2018-05-23T09:08:58.389Z,14.57
2018-05-23T09:11:25.857Z,13.95
2018-05-23T09:13:53.280Z,14.07
2018-05-23T09:16:20.787Z,11.02
2018-05-23T09:18:48.209Z,19.58
2018-05-23T09:21:15.628Z,10.55
2018-05-23T09:23:43.106Z,13.05
2018-05-23T09:26:13.599Z,12.55
2018-05-23T09:28:41.062Z,11.30
2018-05-23T09:31:08.477Z,13.25
2018-05-23T09:33:35.897Z,12.35
2018-05-23T09:36:03.310Z,12.75
2018-05-23T09:38:30.728Z,14.52
2018-05-23T09:40:58.145Z,10.82
2018-05-23T09:43:26.329Z,11.45
2018-05-23T09:45:54.514Z,14.30
2018-05-23T09:48:22.701Z,11.32
2018-05-23T09:50:50.889Z,11.23
2018-05-23T09:53:19.089Z,11.32
2018-05-23T09:55:46.508Z,11.18
2018-05-23T09:58:14.043Z,8.65
2018-05-23T10:00:41.504Z,12.20
2018-05-23T10:03:08.926Z,10.90
2018-05-23T10:05:36.449Z,9.15
2018-05-23T10:08:03.909Z,9.75
2018-05-23T10:10:31.334Z,9.13
2018-05-23T10:12:58.745Z,9.88
2018-05-23T10:15:26.220Z,9.45
2018-05-23T10:17:53.638Z,8.95
2018-05-23T10:20:21.061Z,12.02
2018-05-23T10:22:48.473Z,8.10
2018-05-23T10:25:15.897Z,10.40
2018-05-23T10:27:43.366Z,9.80
2018-05-23T10:30:10.786Z,9.93
2018-05-23T10:32:38.192Z,13.62
2018-05-23T10:35:06.376Z,12.73
2018-05-23T10:37:34.561Z,7.35
2018-05-23T10:40:02.737Z,11.77
2018-05-23T10:42:30.928Z,9.43
2018-05-23T10:44:58.340Z,8.10
2018-05-23T10:47:25.758Z,9.27
2018-05-23T10:49:53.177Z,9.30
2018-05-23T10:52:20.589Z,9.57
2018-05-23T10:54:48.780Z,7.80
2018-05-23T10:57:16.297Z,10.40
2018-05-23T10:59:43.714Z,9.02
2018-05-23T11:02:11.125Z,9.85
2018-05-23T11:04:38.603Z,8.43
2018-05-23T11:07:06.017Z,11.20
2018-05-23T11:09:33.543Z,14.43
2018-05-23T11:12:00.960Z,10.80
2018-05-23T11:14:28.473Z,10.98
2018-05-23T11:16:55.886Z,11.40
2018-05-23T11:19:23.331Z,7.30
2018-05-23T11:21:50.794Z,9.48
2018-05-23T11:24:18.206Z,6.50
2018-05-23T11:26:45.617Z,7.60
2018-05-23T11:29:13.046Z,8.90
2018-05-23T11:31:40.462Z,6.05
2018-05-23T11:34:07.876Z,7.60
2018-05-23T11:36:35.405Z,10.07
2018-05-23T11:39:02.821Z,9.13
2018-05-23T11:41:30.253Z,7.70
2018-05-23T11:43:57.648Z,9.52
2018-05-23T11:46:25.143Z,6.18
2018-05-23T11:48:53.243Z,6.78
2018-05-23T11:51:21.429Z,6.65
2018-05-23T11:53:49.614Z,8.65
2018-05-23T11:56:17.805Z,7.05
2018-05-23T11:58:45.980Z,7.07
2018-05-23T12:01:14.175Z,7.12
2018-05-23T12:03:42.353Z,8.20
2018-05-23T12:06:10.547Z,7.25
2018-05-23T12:08:38.765Z,11.95
2018-05-23T12:11:06.185Z,6.40
2018-05-23T12:13:33.613Z,7.72
2018-05-23T12:16:01.031Z,6.82
2018-05-23T12:18:28.552Z,6.65
2018-05-23T12:20:55.961Z,8.57
2018-05-23T12:23:23.383Z,8.00
2018-05-23T12:25:50.808Z,12.10
2018-05-23T12:28:18.229Z,10.80
2018-05-23T12:30:45.654Z,7.00
2018-05-23T12:33:13.069Z,7.95
2018-05-23T12:35:40.501Z,13.25
2018-05-23T12:38:08.676Z,7.85
2018-05-23T12:40:36.098Z,13.05
2018-05-23T12:43:03.512Z,8.90
2018-05-23T12:45:31.741Z,12.45
2018-05-23T12:47:59.214Z,11.57
2018-05-23T12:50:26.638Z,8.75
2018-05-23T12:52:54.061Z,6.65
2018-05-23T12:55:21.482Z,7.85
2018-05-23T12:57:49.700Z,7.85
2018-05-23T13:00:17.174Z,8.20
2018-05-23T13:02:44.602Z,9.98
2018-05-23T13:05:12.020Z,9.68
2018-05-23T13:07:39.441Z,6.75
2018-05-23T13:10:06.873Z,10.07
2018-05-23T13:12:34.362Z,5.40
2018-05-23T13:15:01.741Z,5.57
2018-05-23T13:17:29.261Z,8.40
2018-05-23T13:19:56.730Z,7.25
2018-05-23T13:22:24.141Z,8.25
2018-05-23T13:24:51.578Z,6.57
2018-05-23T13:27:19.045Z,10.50
2018-05-23T13:29:47.224Z,13.70
2018-05-23T13:32:14.702Z,8.20
2018-05-23T13:34:42.117Z,8.32
2018-05-23T13:37:11.037Z,7.10
2018-05-23T13:39:39.263Z,10.38
2018-05-23T13:42:06.677Z,6.28
2018-05-23T13:44:34.103Z,6.82
2018-05-23T13:47:01.560Z,9.90
2018-05-23T13:49:28.976Z,7.68
2018-05-23T13:51:56.501Z,8.00
2018-05-23T13:54:23.917Z,8.30
2018-05-23T13:56:51.455Z,9.65
2018-05-23T13:59:18.849Z,7.45
2018-05-23T14:01:46.294Z,9.30
2018-05-23T14:04:13.705Z,7.87
2018-05-23T14:06:41.230Z,9.02
2018-05-23T14:09:08.641Z,7.65
2018-05-23T14:11:36.164Z,12.68
2018-05-23T14:14:03.581Z,6.95
2018-05-23T14:16:31.101Z,9.45
2018-05-23T14:18:58.604Z,7.95
2018-05-23T14:21:25.938Z,7.55
2018-05-23T14:23:53.358Z,10.73
2018-05-23T14:26:20.889Z,10.38
2018-05-23T14:28:48.310Z,8.85
2018-05-23T14:31:15.724Z,8.23
2018-05-23T14:33:43.141Z,8.07
2018-05-23T14:36:10.558Z,8.00
2018-05-23T14:38:37.977Z,13.43
2018-05-23T14:41:05.407Z,10.90
2018-05-23T14:43:32.887Z,15.55
2018-05-23T14:46:00.245Z,9.55
2018-05-23T14:48:27.659Z,8.85
2018-05-23T14:50:55.076Z,9.18
2018-05-23T14:53:22.489Z,13.90
2018-05-23T14:55:50.026Z,11.68
2018-05-23T14:58:18.189Z,9.70
2018-05-23T15:00:46.370Z,6.62
2018-05-23T15:03:14.545Z,6.75
2018-05-23T15:05:42.058Z,9.07
2018-05-23T15:08:10.212Z,8.25
2018-05-23T15:10:38.397Z,7.30
2018-05-23T15:13:06.572Z,8.65
2018-05-23T15:15:33.988Z,6.80
2018-05-23T15:18:01.408Z,6.75
2018-05-23T15:20:28.826Z,7.75
2018-05-23T15:22:56.702Z,9.38
2018-05-23T15:25:24.120Z,9.85
2018-05-23T15:27:51.642Z,8.02
2018-05-23T15:30:19.110Z,8.20
2018-05-23T15:32:46.517Z,5.85
2018-05-23T15:35:13.961Z,8.70
2018-05-23T15:37:41.417Z,5.90
2018-05-23T15:40:08.827Z,5.82
2018-05-23T15:42:36.569Z,6.65
2018-05-23T15:45:04.040Z,5.68
2018-05-23T15:47:32.250Z,13.23
2018-05-23T15:49:59.661Z,5.53
2018-05-23T15:52:27.876Z,7.12
2018-05-23T15:54:55.288Z,5.68
2018-05-23T15:57:22.723Z,5.70
2018-05-23T15:59:50.906Z,6.40
2018-05-23T16:02:18.383Z,6.28
2018-05-23T16:04:45.796Z,7.00
2018-05-23T16:07:13.221Z,10.95
2018-05-23T16:09:40.629Z,6.12
2018-05-23T16:12:08.156Z,7.93
2018-05-23T16:14:35.560Z,6.60
2018-05-23T16:17:02.989Z,6.65
2018-05-23T16:19:30.460Z,9.20
2018-05-23T16:21:57.868Z,6.65
2018-05-23T16:24:25.293Z,6.87
2018-05-23T16:26:52.768Z,6.93
2018-05-23T16:29:20.233Z,6.97
2018-05-23T16:31:47.655Z,6.28
2018-05-23T16:34:15.069Z,8.90
2018-05-23T16:36:42.480Z,6.03
2018-05-23T16:39:09.901Z,6.10
2018-05-23T16:41:38.085Z,7.45
2018-05-23T16:44:06.264Z,6.65
2018-05-23T16:46:34.481Z,8.88
2018-05-23T16:49:01.905Z,8.57
2018-05-23T16:51:29.321Z,8.90
2018-05-23T16:53:56.741Z,6.07
2018-05-23T16:56:24.261Z,10.15
2018-05-23T16:58:51.685Z,7.35
2018-05-23T17:01:19.198Z,12.35
2018-05-23T17:03:46.615Z,9.65
2018-05-23T17:06:14.040Z,7.53
2018-05-23T17:08:41.449Z,13.25
2018-05-23T17:11:08.860Z,7.87
2018-05-23T17:13:36.290Z,11.00
2018-05-23T17:16:03.709Z,9.82
2018-05-23T17:18:31.129Z,7.90
2018-05-23T17:20:58.653Z,14.68
2018-05-23T17:23:26.061Z,7.57
2018-05-23T17:25:53.484Z,13.88
2018-05-23T17:28:20.897Z,17.87
2018-05-23T17:30:48.429Z,9.07
2018-05-23T17:33:15.845Z,15.27
2018-05-23T17:35:43.270Z,10.45
2018-05-23T17:38:10.680Z,10.35
2018-05-23T17:40:38.102Z,13.38
2018-05-23T17:43:05.568Z,8.70
2018-05-23T17:45:32.991Z,12.13
2018-05-23T17:48:00.406Z,17.33
2018-05-23T17:50:27.821Z,9.35
2018-05-23T17:52:55.256Z,10.23
2018-05-23T17:55:22.726Z,13.07
2018-05-23T17:57:50.137Z,13.52
2018-05-23T18:00:17.561Z,11.18
2018-05-23T18:02:45.015Z,11.77
2018-05-23T18:05:12.417Z,11.43
2018-05-23T18:07:39.897Z,9.30
2018-05-23T18:10:07.261Z,11.57
2018-05-23T18:12:34.710Z,13.07
2018-05-23T18:15:02.129Z,10.98
2018-05-23T18:17:29.544Z,13.70
2018-05-23T18:19:56.969Z,15.45
2018-05-23T18:22:24.394Z,12.23
2018-05-23T18:24:51.857Z,11.77
2018-05-23T18:27:19.281Z,10.98
2018-05-23T18:29:46.716Z,11.75
2018-05-23T18:32:14.161Z,10.82
2018-05-23T18:34:41.633Z,14.15
2018-05-23T18:37:09.057Z,14.87
2018-05-23T18:39:36.478Z,13.90
2018-05-23T18:42:03.902Z,12.20
2018-05-23T18:44:31.323Z,11.00
2018-05-23T18:46:58.777Z,15.82
2018-05-23T18:49:26.395Z,12.73
2018-05-23T18:51:53.608Z,16.58
2018-05-23T18:54:21.035Z,9.70
2018-05-23T18:56:48.449Z,10.75
2018-05-23T18:59:15.856Z,12.68
2018-05-23T19:01:43.294Z,13.00
2018-05-23T19:04:10.705Z,11.00
2018-05-23T19:06:38.136Z,11.20
2018-05-23T19:09:06.530Z,11.93
2018-05-23T19:11:33.949Z,16.55
2018-05-23T19:14:01.461Z,15.85
2018-05-23T19:16:28.938Z,12.93
2018-05-23T19:18:56.349Z,12.75
2018-05-23T19:21:23.881Z,12.65
2018-05-23T19:23:52.061Z,11.43
2018-05-23T19:26:19.529Z,11.95
2018-05-23T19:28:46.953Z,12.45
2018-05-23T19:31:15.886Z,13.10
2018-05-23T19:33:44.079Z,11.73
2018-05-23T19:36:12.281Z,14.05
2018-05-23T19:38:39.699Z,14.85
2018-05-23T19:41:07.282Z,13.13
2018-05-23T19:43:34.689Z,14.13
2018-05-23T19:46:02.161Z,14.10
2018-05-23T19:48:29.585Z,34.40
2018-05-23T19:50:57.007Z,12.90
2018-05-23T19:53:24.429Z,12.13
2018-05-23T19:55:51.944Z,15.00
2018-05-23T19:58:19.413Z,17.92
2018-05-23T20:00:47.573Z,14.80
2018-05-23T20:03:15.765Z,13.75
2018-05-23T20:05:43.951Z,13.73
2018-05-23T20:08:12.189Z,12.63
2018-05-23T20:10:40.316Z,12.55
2018-05-23T20:13:08.513Z,12.43
2018-05-23T20:15:36.696Z,13.57
2018-05-23T20:18:04.898Z,14.40
2018-05-23T20:20:32.317Z,14.23
2018-05-23T20:22:59.739Z,16.08
2018-05-23T20:25:27.161Z,14.45
2018-05-23T20:27:54.595Z,17.23
2018-05-23T20:30:22.004Z,13.75
2018-05-23T20:32:49.526Z,16.17
2018-05-23T20:35:17.707Z,13.25
2018-05-23T20:37:45.117Z,13.85
2018-05-23T20:40:12.541Z,16.73
2018-05-23T20:42:39.957Z,17.83
2018-05-23T20:45:07.491Z,13.50
2018-05-23T20:47:35.058Z,13.55
2018-05-23T20:50:02.402Z,18.77
2018-05-23T20:52:30.620Z,13.65
2018-05-23T20:54:58.059Z,13.45
2018-05-23T20:57:26.238Z,14.93
2018-05-23T20:59:54.432Z,14.38
2018-05-23T21:02:22.612Z,15.32
2018-05-23T21:04:50.042Z,14.15
2018-05-23T21:07:17.461Z,13.90
2018-05-23T21:09:45.654Z,17.85
2018-05-23T21:12:13.867Z,14.13
2018-05-23T21:14:42.045Z,14.70
2018-05-23T21:17:09.524Z,13.45
2018-05-23T21:19:37.698Z,15.07
2018-05-23T21:22:05.178Z,17.55
2018-05-23T21:24:32.620Z,16.48
2018-05-23T21:27:00.809Z,17.48
2018-05-23T21:29:29.001Z,18.27
2018-05-23T21:31:57.194Z,13.30
2018-05-23T21:34:25.438Z,15.00
2018-05-23T21:36:52.805Z,17.48
2018-05-23T21:39:20.329Z,15.38
2018-05-23T21:41:47.748Z,14.40
2018-05-23T21:44:15.177Z,13.02
2018-05-23T21:46:42.597Z,12.15
2018-05-23T21:49:10.021Z,13.20
2018-05-23T21:51:37.437Z,13.95
2018-05-23T21:54:04.868Z,14.13
2018-05-23T21:56:32.324Z,13.75
2018-05-23T21:58:59.741Z,15.80
2018-05-23T22:01:27.161Z,13.25
2018-05-23T22:03:54.635Z,13.73
2018-05-23T22:06:22.797Z,12.50
2018-05-23T22:08:50.990Z,14.95
2018-05-23T22:11:18.476Z,12.00
2018-05-23T22:13:45.897Z,14.07
2018-05-23T22:16:13.308Z,14.02
2018-05-23T22:18:40.737Z,11.65
2018-05-23T22:21:08.153Z,12.30
2018-05-23T22:23:35.624Z,11.32
2018-05-23T22:26:03.094Z,16.65
2018-05-23T22:28:30.512Z,14.13
2018-05-23T22:30:57.933Z,12.85
2018-05-23T22:33:25.353Z,15.25
2018-05-23T22:35:52.819Z,11.55
2018-05-23T22:38:20.196Z,12.07
2018-05-23T22:40:47.706Z,12.55
2018-05-23T22:43:15.283Z,13.35
2018-05-23T22:45:43.454Z,13.90
2018-05-23T22:48:11.633Z,13.15
2018-05-23T22:50:39.825Z,13.38
2018-05-23T22:53:08.001Z,12.57
2018-05-23T22:55:36.200Z,12.20
2018-05-23T22:58:04.388Z,14.13
2018-05-23T23:00:32.590Z,13.55
2018-05-23T23:03:00.001Z,16.17
2018-05-23T23:05:27.533Z,16.48
2018-05-23T23:07:54.953Z,16.27
2018-05-23T23:10:22.376Z,14.45
2018-05-23T23:12:49.841Z,14.15
2018-05-23T23:15:17.259Z,18.37
2018-05-23T23:17:44.684Z,15.18
2018-05-23T23:20:12.100Z,13.95
2018-05-23T23:22:39.525Z,15.65
2018-05-23T23:25:06.954Z,14.02
2018-05-23T23:27:35.136Z,13.43
2018-05-23T23:30:02.641Z,16.40
2018-05-23T23:32:30.053Z,15.50
2018-05-23T23:34:57.486Z,13.88
2018-05-23T23:37:24.901Z,15.10
2018-05-23T23:39:52.412Z,15.80
2018-05-23T23:42:19.837Z,13.90
2018-05-23T23:44:48.285Z,15.57
2018-05-23T23:47:16.470Z,18.90
2018-05-23T23:49:43.897Z,13.98
2018-05-23T23:52:11.316Z,16.25
2018-05-23T23:54:38.793Z,14.15
2018-05-23T23:57:06.355Z,13.80
2018-05-23T23:59:34.534Z,13.88
